sensor_id;sensor_type;location;lat;lon;timestamp;P1;durP1;ratioP1;P2;durP2;ratioP2
47337;SDS011;33069;51.970;5.892;2023-06-26T00:00:16;23.95;;;22.13;;
47337;SDS011;33069;51.970;5.892;2023-06-26T00:02:41;25.55;;;23.40;;
47337;SDS011;33069;51.970;5.892;2023-06-26T00:05:07;24.88;;;22.70;;
47337;SDS011;33069;51.970;5.892;2023-06-26T00:07:33;26.05;;;24.00;;
47337;SDS011;33069;51.970;5.892;2023-06-26T00:10:00;24.63;;;22.73;;
47337;SDS011;33069;51.970;5.892;2023-06-26T00:12:27;25.13;;;23.23;;
47337;SDS011;33069;51.970;5.892;2023-06-26T00:14:54;24.85;;;22.77;;
47337;SDS011;33069;51.970;5.892;2023-06-26T00:17:20;24.95;;;23.05;;
47337;SDS011;33069;51.970;5.892;2023-06-26T00:19:45;26.27;;;24.20;;
47337;SDS011;33069;51.970;5.892;2023-06-26T00:22:11;25.52;;;23.60;;
47337;SDS011;33069;51.970;5.892;2023-06-26T00:24:37;25.35;;;23.27;;
47337;SDS011;33069;51.970;5.892;2023-06-26T00:27:03;25.90;;;23.90;;
47337;SDS011;33069;51.970;5.892;2023-06-26T00:29:28;25.95;;;23.95;;
47337;SDS011;33069;51.970;5.892;2023-06-26T00:31:54;27.55;;;25.27;;
47337;SDS011;33069;51.970;5.892;2023-06-26T00:34:20;25.92;;;23.92;;
47337;SDS011;33069;51.970;5.892;2023-06-26T00:36:46;26.35;;;24.35;;
47337;SDS011;33069;51.970;5.892;2023-06-26T00:39:11;25.83;;;23.95;;
47337;SDS011;33069;51.970;5.892;2023-06-26T00:41:37;29.75;;;27.33;;
47337;SDS011;33069;51.970;5.892;2023-06-26T00:44:04;31.25;;;28.75;;
47337;SDS011;33069;51.970;5.892;2023-06-26T00:46:30;30.17;;;27.77;;
47337;SDS011;33069;51.970;5.892;2023-06-26T00:48:56;25.50;;;23.60;;
47337;SDS011;33069;51.970;5.892;2023-06-26T00:51:24;25.73;;;23.75;;
47337;SDS011;33069;51.970;5.892;2023-06-26T00:53:51;24.70;;;22.63;;
47337;SDS011;33069;51.970;5.892;2023-06-26T00:56:17;26.13;;;24.13;;
47337;SDS011;33069;51.970;5.892;2023-06-26T00:58:43;30.35;;;27.80;;
47337;SDS011;33069;51.970;5.892;2023-06-26T01:01:10;26.88;;;24.67;;
47337;SDS011;33069;51.970;5.892;2023-06-26T01:03:41;24.52;;;22.73;;
47337;SDS011;33069;51.970;5.892;2023-06-26T01:06:07;26.10;;;24.00;;
47337;SDS011;33069;51.970;5.892;2023-06-26T01:08:36;24.65;;;22.73;;
47337;SDS011;33069;51.970;5.892;2023-06-26T01:11:03;24.92;;;22.90;;
47337;SDS011;33069;51.970;5.892;2023-06-26T01:13:29;25.48;;;23.58;;
47337;SDS011;33069;51.970;5.892;2023-06-26T01:15:57;25.02;;;23.05;;
47337;SDS011;33069;51.970;5.892;2023-06-26T01:18:24;24.63;;;22.65;;
47337;SDS011;33069;51.970;5.892;2023-06-26T01:20:51;23.98;;;22.10;;
47337;SDS011;33069;51.970;5.892;2023-06-26T01:23:28;25.27;;;23.27;;
47337;SDS011;33069;51.970;5.892;2023-06-26T01:28:38;23.48;;;21.77;;
47337;SDS011;33069;51.970;5.892;2023-06-26T01:31:06;24.42;;;22.17;;
47337;SDS011;33069;51.970;5.892;2023-06-26T01:33:33;25.77;;;23.60;;
47337;SDS011;33069;51.970;5.892;2023-06-26T01:36:00;24.90;;;22.85;;
47337;SDS011;33069;51.970;5.892;2023-06-26T01:38:26;26.40;;;24.30;;
47337;SDS011;33069;51.970;5.892;2023-06-26T01:40:52;25.75;;;23.75;;
47337;SDS011;33069;51.970;5.892;2023-06-26T01:50:06;25.85;;;23.77;;
47337;SDS011;33069;51.970;5.892;2023-06-26T01:52:46;26.48;;;24.20;;
47337;SDS011;33069;51.970;5.892;2023-06-26T01:55:40;27.50;;;24.77;;
47337;SDS011;33069;51.970;5.892;2023-06-26T01:58:11;26.77;;;24.42;;
47337;SDS011;33069;51.970;5.892;2023-06-26T02:00:38;27.30;;;24.70;;
47337;SDS011;33069;51.970;5.892;2023-06-26T02:03:20;26.38;;;24.10;;
47337;SDS011;33069;51.970;5.892;2023-06-26T02:05:49;26.33;;;24.13;;
47337;SDS011;33069;51.970;5.892;2023-06-26T02:08:15;25.92;;;23.85;;
47337;SDS011;33069;51.970;5.892;2023-06-26T02:10:41;26.50;;;24.30;;
47337;SDS011;33069;51.970;5.892;2023-06-26T02:13:07;25.15;;;23.05;;
47337;SDS011;33069;51.970;5.892;2023-06-26T02:15:33;25.48;;;23.38;;
47337;SDS011;33069;51.970;5.892;2023-06-26T02:17:58;26.08;;;23.50;;
47337;SDS011;33069;51.970;5.892;2023-06-26T02:20:24;25.25;;;23.08;;
47337;SDS011;33069;51.970;5.892;2023-06-26T02:22:50;24.17;;;21.85;;
47337;SDS011;33069;51.970;5.892;2023-06-26T02:25:17;23.25;;;21.45;;
47337;SDS011;33069;51.970;5.892;2023-06-26T02:27:43;22.25;;;19.98;;
47337;SDS011;33069;51.970;5.892;2023-06-26T02:30:08;20.15;;;18.45;;
47337;SDS011;33069;51.970;5.892;2023-06-26T02:32:34;21.13;;;19.30;;
47337;SDS011;33069;51.970;5.892;2023-06-26T02:35:00;22.13;;;20.02;;
47337;SDS011;33069;51.970;5.892;2023-06-26T02:37:26;19.17;;;17.67;;
47337;SDS011;33069;51.970;5.892;2023-06-26T02:39:52;20.45;;;18.33;;
47337;SDS011;33069;51.970;5.892;2023-06-26T02:42:18;19.20;;;17.48;;
47337;SDS011;33069;51.970;5.892;2023-06-26T02:44:43;18.52;;;16.67;;
47337;SDS011;33069;51.970;5.892;2023-06-26T02:47:09;20.35;;;18.60;;
47337;SDS011;33069;51.970;5.892;2023-06-26T02:49:35;18.23;;;16.55;;
47337;SDS011;33069;51.970;5.892;2023-06-26T02:52:00;19.30;;;16.85;;
47337;SDS011;33069;51.970;5.892;2023-06-26T02:54:26;18.83;;;16.92;;
47337;SDS011;33069;51.970;5.892;2023-06-26T02:56:52;18.50;;;16.70;;
47337;SDS011;33069;51.970;5.892;2023-06-26T02:59:17;19.60;;;17.77;;
47337;SDS011;33069;51.970;5.892;2023-06-26T03:01:43;18.20;;;16.60;;
47337;SDS011;33069;51.970;5.892;2023-06-26T03:04:09;17.98;;;16.20;;
47337;SDS011;33069;51.970;5.892;2023-06-26T03:06:35;18.70;;;16.80;;
47337;SDS011;33069;51.970;5.892;2023-06-26T03:09:01;17.63;;;15.77;;
47337;SDS011;33069;51.970;5.892;2023-06-26T03:11:28;18.88;;;16.52;;
47337;SDS011;33069;51.970;5.892;2023-06-26T03:13:53;18.25;;;16.35;;
47337;SDS011;33069;51.970;5.892;2023-06-26T03:16:19;17.98;;;16.20;;
47337;SDS011;33069;51.970;5.892;2023-06-26T03:18:44;17.88;;;16.00;;
47337;SDS011;33069;51.970;5.892;2023-06-26T03:21:10;18.02;;;16.15;;
47337;SDS011;33069;51.970;5.892;2023-06-26T03:23:36;17.27;;;15.48;;
47337;SDS011;33069;51.970;5.892;2023-06-26T03:26:02;23.25;;;16.08;;
47337;SDS011;33069;51.970;5.892;2023-06-26T03:28:27;17.90;;;16.20;;
47337;SDS011;33069;51.970;5.892;2023-06-26T03:30:53;19.90;;;17.40;;
47337;SDS011;33069;51.970;5.892;2023-06-26T03:33:19;18.95;;;16.90;;
47337;SDS011;33069;51.970;5.892;2023-06-26T03:35:45;19.33;;;14.57;;
47337;SDS011;33069;51.970;5.892;2023-06-26T03:38:10;16.70;;;14.70;;
47337;SDS011;33069;51.970;5.892;2023-06-26T03:40:36;16.75;;;15.05;;
47337;SDS011;33069;51.970;5.892;2023-06-26T03:43:02;17.85;;;16.02;;
47337;SDS011;33069;51.970;5.892;2023-06-26T03:45:27;18.15;;;16.10;;
47337;SDS011;33069;51.970;5.892;2023-06-26T03:47:53;19.00;;;15.90;;
47337;SDS011;33069;51.970;5.892;2023-06-26T03:50:19;18.95;;;16.63;;
47337;SDS011;33069;51.970;5.892;2023-06-26T03:52:45;19.70;;;14.25;;
47337;SDS011;33069;51.970;5.892;2023-06-26T03:55:11;19.83;;;12.52;;
47337;SDS011;33069;51.970;5.892;2023-06-26T03:57:36;14.40;;;12.27;;
47337;SDS011;33069;51.970;5.892;2023-06-26T04:00:02;18.23;;;12.20;;
47337;SDS011;33069;51.970;5.892;2023-06-26T04:02:36;17.85;;;13.27;;
47337;SDS011;33069;51.970;5.892;2023-06-26T04:05:02;23.35;;;13.98;;
47337;SDS011;33069;51.970;5.892;2023-06-26T04:07:29;18.77;;;13.75;;
47337;SDS011;33069;51.970;5.892;2023-06-26T04:09:56;20.58;;;13.00;;
47337;SDS011;33069;51.970;5.892;2023-06-26T04:12:22;19.20;;;17.27;;
47337;SDS011;33069;51.970;5.892;2023-06-26T04:14:48;23.75;;;14.77;;
47337;SDS011;33069;51.970;5.892;2023-06-26T04:17:13;20.92;;;13.77;;
47337;SDS011;33069;51.970;5.892;2023-06-26T04:19:39;17.40;;;13.13;;
47337;SDS011;33069;51.970;5.892;2023-06-26T04:22:05;20.80;;;14.13;;
47337;SDS011;33069;51.970;5.892;2023-06-26T04:24:31;23.30;;;14.13;;
47337;SDS011;33069;51.970;5.892;2023-06-26T04:26:56;26.60;;;15.35;;
47337;SDS011;33069;51.970;5.892;2023-06-26T04:29:22;19.50;;;15.13;;
47337;SDS011;33069;51.970;5.892;2023-06-26T04:31:52;24.40;;;14.55;;
47337;SDS011;33069;51.970;5.892;2023-06-26T04:34:22;19.80;;;13.77;;
47337;SDS011;33069;51.970;5.892;2023-06-26T04:36:52;22.75;;;13.60;;
47337;SDS011;33069;51.970;5.892;2023-06-26T04:39:18;23.90;;;14.20;;
47337;SDS011;33069;51.970;5.892;2023-06-26T04:41:44;20.77;;;13.68;;
47337;SDS011;33069;51.970;5.892;2023-06-26T04:44:10;23.98;;;14.85;;
47337;SDS011;33069;51.970;5.892;2023-06-26T04:46:37;22.13;;;14.57;;
47337;SDS011;33069;51.970;5.892;2023-06-26T04:49:06;25.40;;;13.20;;
47337;SDS011;33069;51.970;5.892;2023-06-26T04:51:33;29.83;;;14.48;;
47337;SDS011;33069;51.970;5.892;2023-06-26T04:53:58;22.90;;;14.38;;
47337;SDS011;33069;51.970;5.892;2023-06-26T04:56:24;28.15;;;13.70;;
47337;SDS011;33069;51.970;5.892;2023-06-26T04:58:50;21.92;;;13.40;;
47337;SDS011;33069;51.970;5.892;2023-06-26T05:01:15;21.95;;;13.85;;
47337;SDS011;33069;51.970;5.892;2023-06-26T05:03:42;24.52;;;14.73;;
47337;SDS011;33069;51.970;5.892;2023-06-26T05:06:08;23.40;;;14.45;;
47337;SDS011;33069;51.970;5.892;2023-06-26T05:08:33;22.25;;;14.93;;
47337;SDS011;33069;51.970;5.892;2023-06-26T05:10:59;26.33;;;13.43;;
47337;SDS011;33069;51.970;5.892;2023-06-26T05:13:25;23.25;;;16.00;;
47337;SDS011;33069;51.970;5.892;2023-06-26T05:15:51;22.77;;;12.68;;
47337;SDS011;33069;51.970;5.892;2023-06-26T05:18:17;25.92;;;14.30;;
47337;SDS011;33069;51.970;5.892;2023-06-26T05:20:43;21.45;;;12.57;;
47337;SDS011;33069;51.970;5.892;2023-06-26T05:23:13;19.85;;;12.02;;
47337;SDS011;33069;51.970;5.892;2023-06-26T05:25:41;19.30;;;12.90;;
47337;SDS011;33069;51.970;5.892;2023-06-26T05:28:07;20.83;;;12.75;;
47337;SDS011;33069;51.970;5.892;2023-06-26T05:30:35;29.67;;;12.95;;
47337;SDS011;33069;51.970;5.892;2023-06-26T05:33:01;23.88;;;13.00;;
47337;SDS011;33069;51.970;5.892;2023-06-26T05:35:28;26.55;;;14.60;;
47337;SDS011;33069;51.970;5.892;2023-06-26T05:37:55;24.23;;;12.70;;
47337;SDS011;33069;51.970;5.892;2023-06-26T05:40:22;23.90;;;12.75;;
47337;SDS011;33069;51.970;5.892;2023-06-26T05:42:48;25.88;;;21.77;;
47337;SDS011;33069;51.970;5.892;2023-06-26T05:45:14;21.52;;;12.35;;
47337;SDS011;33069;51.970;5.892;2023-06-26T05:47:41;19.50;;;12.15;;
47337;SDS011;33069;51.970;5.892;2023-06-26T05:50:07;19.83;;;12.15;;
47337;SDS011;33069;51.970;5.892;2023-06-26T05:52:34;22.83;;;12.73;;
47337;SDS011;33069;51.970;5.892;2023-06-26T05:55:00;18.80;;;11.52;;
47337;SDS011;33069;51.970;5.892;2023-06-26T05:57:28;20.02;;;13.43;;
47337;SDS011;33069;51.970;5.892;2023-06-26T05:59:54;19.00;;;11.98;;
47337;SDS011;33069;51.970;5.892;2023-06-26T06:02:21;19.35;;;11.50;;
47337;SDS011;33069;51.970;5.892;2023-06-26T06:04:47;22.20;;;12.95;;
47337;SDS011;33069;51.970;5.892;2023-06-26T06:07:12;20.50;;;11.52;;
47337;SDS011;33069;51.970;5.892;2023-06-26T06:09:38;16.92;;;12.13;;
47337;SDS011;33069;51.970;5.892;2023-06-26T06:12:05;19.10;;;11.18;;
47337;SDS011;33069;51.970;5.892;2023-06-26T06:14:34;18.35;;;11.35;;
47337;SDS011;33069;51.970;5.892;2023-06-26T06:17:00;12.57;;;10.35;;
47337;SDS011;33069;51.970;5.892;2023-06-26T06:19:26;14.73;;;10.82;;
47337;SDS011;33069;51.970;5.892;2023-06-26T06:21:52;18.15;;;10.90;;
47337;SDS011;33069;51.970;5.892;2023-06-26T06:24:18;13.30;;;9.85;;
47337;SDS011;33069;51.970;5.892;2023-06-26T06:26:43;12.63;;;10.52;;
47337;SDS011;33069;51.970;5.892;2023-06-26T06:29:09;14.25;;;10.00;;
47337;SDS011;33069;51.970;5.892;2023-06-26T06:31:35;12.70;;;9.90;;
47337;SDS011;33069;51.970;5.892;2023-06-26T06:34:01;12.57;;;9.98;;
47337;SDS011;33069;51.970;5.892;2023-06-26T06:36:27;13.90;;;12.57;;
47337;SDS011;33069;51.970;5.892;2023-06-26T06:38:52;13.45;;;9.77;;
47337;SDS011;33069;51.970;5.892;2023-06-26T06:41:19;11.95;;;10.75;;
47337;SDS011;33069;51.970;5.892;2023-06-26T06:43:45;10.77;;;9.65;;
47337;SDS011;33069;51.970;5.892;2023-06-26T06:46:11;11.15;;;9.70;;
47337;SDS011;33069;51.970;5.892;2023-06-26T06:48:37;11.05;;;9.90;;
47337;SDS011;33069;51.970;5.892;2023-06-26T06:51:02;14.00;;;9.88;;
47337;SDS011;33069;51.970;5.892;2023-06-26T06:53:28;12.27;;;11.10;;
47337;SDS011;33069;51.970;5.892;2023-06-26T06:55:55;11.88;;;10.90;;
47337;SDS011;33069;51.970;5.892;2023-06-26T06:58:21;10.68;;;9.77;;
47337;SDS011;33069;51.970;5.892;2023-06-26T07:00:47;11.88;;;10.77;;
47337;SDS011;33069;51.970;5.892;2023-06-26T07:03:13;9.90;;;9.10;;
47337;SDS011;33069;51.970;5.892;2023-06-26T07:05:43;11.68;;;10.48;;
47337;SDS011;33069;51.970;5.892;2023-06-26T07:08:09;12.80;;;11.55;;
47337;SDS011;33069;51.970;5.892;2023-06-26T07:10:35;14.45;;;13.05;;
47337;SDS011;33069;51.970;5.892;2023-06-26T07:13:01;10.50;;;9.57;;
47337;SDS011;33069;51.970;5.892;2023-06-26T07:15:27;9.52;;;8.75;;
47337;SDS011;33069;51.970;5.892;2023-06-26T07:17:52;10.23;;;9.23;;
47337;SDS011;33069;51.970;5.892;2023-06-26T07:20:18;10.45;;;9.27;;
47337;SDS011;33069;51.970;5.892;2023-06-26T07:22:44;12.43;;;9.52;;
47337;SDS011;33069;51.970;5.892;2023-06-26T07:25:10;12.60;;;11.05;;
47337;SDS011;33069;51.970;5.892;2023-06-26T07:27:36;12.27;;;11.10;;
47337;SDS011;33069;51.970;5.892;2023-06-26T07:30:03;12.48;;;9.27;;
47337;SDS011;33069;51.970;5.892;2023-06-26T07:32:29;12.38;;;9.13;;
47337;SDS011;33069;51.970;5.892;2023-06-26T07:34:54;11.65;;;10.55;;
47337;SDS011;33069;51.970;5.892;2023-06-26T07:37:20;10.40;;;9.38;;
47337;SDS011;33069;51.970;5.892;2023-06-26T07:39:46;11.77;;;10.68;;
47337;SDS011;33069;51.970;5.892;2023-06-26T07:42:12;10.15;;;9.23;;
47337;SDS011;33069;51.970;5.892;2023-06-26T07:44:38;11.40;;;10.00;;
47337;SDS011;33069;51.970;5.892;2023-06-26T07:47:04;11.10;;;10.05;;
47337;SDS011;33069;51.970;5.892;2023-06-26T07:49:30;20.88;;;19.23;;
47337;SDS011;33069;51.970;5.892;2023-06-26T07:51:56;11.43;;;10.43;;
47337;SDS011;33069;51.970;5.892;2023-06-26T07:54:21;12.20;;;11.13;;
47337;SDS011;33069;51.970;5.892;2023-06-26T07:56:57;12.80;;;10.95;;
47337;SDS011;33069;51.970;5.892;2023-06-26T07:59:26;15.52;;;14.00;;
47337;SDS011;33069;51.970;5.892;2023-06-26T08:01:53;21.20;;;19.52;;
47337;SDS011;33069;51.970;5.892;2023-06-26T08:04:22;14.38;;;11.20;;
47337;SDS011;33069;51.970;5.892;2023-06-26T08:06:49;12.77;;;11.38;;
47337;SDS011;33069;51.970;5.892;2023-06-26T08:09:17;12.35;;;9.88;;
47337;SDS011;33069;51.970;5.892;2023-06-26T08:11:44;10.80;;;9.70;;
47337;SDS011;33069;51.970;5.892;2023-06-26T08:14:10;13.13;;;9.65;;
47337;SDS011;33069;51.970;5.892;2023-06-26T08:16:37;12.63;;;10.35;;
47337;SDS011;33069;51.970;5.892;2023-06-26T08:19:04;14.93;;;13.68;;
47337;SDS011;33069;51.970;5.892;2023-06-26T08:21:29;11.45;;;10.27;;
47337;SDS011;33069;51.970;5.892;2023-06-26T08:23:55;13.07;;;11.95;;
47337;SDS011;33069;51.970;5.892;2023-06-26T08:26:21;14.77;;;13.48;;
47337;SDS011;33069;51.970;5.892;2023-06-26T08:28:47;10.43;;;9.50;;
47337;SDS011;33069;51.970;5.892;2023-06-26T08:31:12;14.00;;;11.40;;
47337;SDS011;33069;51.970;5.892;2023-06-26T08:33:38;12.90;;;11.32;;
47337;SDS011;33069;51.970;5.892;2023-06-26T08:36:04;14.85;;;13.30;;
47337;SDS011;33069;51.970;5.892;2023-06-26T08:38:29;13.88;;;12.73;;
47337;SDS011;33069;51.970;5.892;2023-06-26T08:40:55;16.23;;;11.95;;
47337;SDS011;33069;51.970;5.892;2023-06-26T08:43:21;12.88;;;11.57;;
47337;SDS011;33069;51.970;5.892;2023-06-26T08:45:47;12.05;;;10.90;;
47337;SDS011;33069;51.970;5.892;2023-06-26T08:48:16;13.10;;;10.95;;
47337;SDS011;33069;51.970;5.892;2023-06-26T08:50:43;12.00;;;10.80;;
47337;SDS011;33069;51.970;5.892;2023-06-26T08:53:11;11.65;;;9.98;;
47337;SDS011;33069;51.970;5.892;2023-06-26T08:55:44;10.88;;;9.90;;
47337;SDS011;33069;51.970;5.892;2023-06-26T08:58:11;12.50;;;10.45;;
47337;SDS011;33069;51.970;5.892;2023-06-26T09:00:38;11.45;;;10.10;;
47337;SDS011;33069;51.970;5.892;2023-06-26T09:03:04;10.50;;;9.60;;
47337;SDS011;33069;51.970;5.892;2023-06-26T09:05:30;11.70;;;10.55;;
47337;SDS011;33069;51.970;5.892;2023-06-26T09:07:57;15.18;;;9.95;;
47337;SDS011;33069;51.970;5.892;2023-06-26T09:10:23;10.80;;;9.82;;
47337;SDS011;33069;51.970;5.892;2023-06-26T09:12:50;11.40;;;9.82;;
47337;SDS011;33069;51.970;5.892;2023-06-26T09:15:18;11.55;;;10.43;;
47337;SDS011;33069;51.970;5.892;2023-06-26T09:17:45;13.35;;;8.70;;
47337;SDS011;33069;51.970;5.892;2023-06-26T09:20:11;10.43;;;9.30;;
47337;SDS011;33069;51.970;5.892;2023-06-26T09:22:40;10.38;;;9.52;;
47337;SDS011;33069;51.970;5.892;2023-06-26T09:25:08;11.02;;;10.02;;
47337;SDS011;33069;51.970;5.892;2023-06-26T09:27:35;9.57;;;8.27;;
47337;SDS011;33069;51.970;5.892;2023-06-26T09:30:05;18.23;;;16.80;;
47337;SDS011;33069;51.970;5.892;2023-06-26T09:32:34;8.13;;;7.03;;
47337;SDS011;33069;51.970;5.892;2023-06-26T09:35:03;8.75;;;8.13;;
47337;SDS011;33069;51.970;5.892;2023-06-26T09:37:29;8.48;;;7.60;;
47337;SDS011;33069;51.970;5.892;2023-06-26T09:39:55;13.23;;;9.77;;
47337;SDS011;33069;51.970;5.892;2023-06-26T09:42:21;8.77;;;6.60;;
47337;SDS011;33069;51.970;5.892;2023-06-26T09:44:48;10.20;;;7.38;;
47337;SDS011;33069;51.970;5.892;2023-06-26T09:47:18;25.85;;;23.77;;
47337;SDS011;33069;51.970;5.892;2023-06-26T09:49:44;8.50;;;7.32;;
47337;SDS011;33069;51.970;5.892;2023-06-26T09:52:17;12.77;;;7.25;;
47337;SDS011;33069;51.970;5.892;2023-06-26T09:54:43;9.13;;;8.33;;
47337;SDS011;33069;51.970;5.892;2023-06-26T09:57:10;15.88;;;14.20;;
47337;SDS011;33069;51.970;5.892;2023-06-26T09:59:43;8.18;;;7.47;;
47337;SDS011;33069;51.970;5.892;2023-06-26T10:02:10;8.10;;;7.32;;
47337;SDS011;33069;51.970;5.892;2023-06-26T10:04:37;10.95;;;8.88;;
47337;SDS011;33069;51.970;5.892;2023-06-26T10:07:06;12.07;;;9.57;;
47337;SDS011;33069;51.970;5.892;2023-06-26T10:09:36;9.20;;;8.40;;
47337;SDS011;33069;51.970;5.892;2023-06-26T10:12:11;13.00;;;10.18;;
47337;SDS011;33069;51.970;5.892;2023-06-26T10:14:44;11.82;;;10.63;;
47337;SDS011;33069;51.970;5.892;2023-06-26T10:17:10;26.30;;;24.65;;
47337;SDS011;33069;51.970;5.892;2023-06-26T10:19:41;7.35;;;6.05;;
47337;SDS011;33069;51.970;5.892;2023-06-26T10:22:09;9.98;;;6.60;;
47337;SDS011;33069;51.970;5.892;2023-06-26T10:24:41;10.18;;;7.05;;
47337;SDS011;33069;51.970;5.892;2023-06-26T10:27:10;6.40;;;5.65;;
47337;SDS011;33069;51.970;5.892;2023-06-26T10:29:42;18.77;;;16.95;;
47337;SDS011;33069;51.970;5.892;2023-06-26T10:32:12;8.02;;;6.30;;
47337;SDS011;33069;51.970;5.892;2023-06-26T10:34:39;11.90;;;6.30;;
47337;SDS011;33069;51.970;5.892;2023-06-26T10:37:05;10.75;;;6.30;;
47337;SDS011;33069;51.970;5.892;2023-06-26T10:39:47;20.15;;;18.52;;
47337;SDS011;33069;51.970;5.892;2023-06-26T10:42:20;9.38;;;8.57;;
47337;SDS011;33069;51.970;5.892;2023-06-26T10:45:08;6.88;;;5.10;;
47337;SDS011;33069;51.970;5.892;2023-06-26T10:47:45;12.57;;;7.00;;
47337;SDS011;33069;51.970;5.892;2023-06-26T10:50:25;5.68;;;5.00;;
47337;SDS011;33069;51.970;5.892;2023-06-26T10:55:59;10.43;;;9.70;;
47337;SDS011;33069;51.970;5.892;2023-06-26T11:03:46;9.18;;;5.70;;
47337;SDS011;33069;51.970;5.892;2023-06-26T11:08:51;8.20;;;7.60;;
47337;SDS011;33069;51.970;5.892;2023-06-26T11:14:20;7.55;;;6.07;;
47337;SDS011;33069;51.970;5.892;2023-06-26T11:16:46;7.82;;;7.20;;
47337;SDS011;33069;51.970;5.892;2023-06-26T11:19:14;10.80;;;7.32;;
47337;SDS011;33069;51.970;5.892;2023-06-26T11:21:42;7.10;;;6.38;;
47337;SDS011;33069;51.970;5.892;2023-06-26T11:24:08;7.38;;;6.78;;
47337;SDS011;33069;51.970;5.892;2023-06-26T11:26:38;11.23;;;5.93;;
47337;SDS011;33069;51.970;5.892;2023-06-26T11:29:05;6.60;;;6.00;;
47337;SDS011;33069;51.970;5.892;2023-06-26T11:31:32;6.65;;;6.07;;
47337;SDS011;33069;51.970;5.892;2023-06-26T11:33:59;8.68;;;7.55;;
47337;SDS011;33069;51.970;5.892;2023-06-26T11:36:26;7.13;;;6.60;;
47337;SDS011;33069;51.970;5.892;2023-06-26T11:39:02;8.63;;;6.70;;
47337;SDS011;33069;51.970;5.892;2023-06-26T11:41:31;7.10;;;6.60;;
47337;SDS011;33069;51.970;5.892;2023-06-26T11:44:04;11.63;;;6.78;;
47337;SDS011;33069;51.970;5.892;2023-06-26T11:46:34;15.25;;;6.10;;
47337;SDS011;33069;51.970;5.892;2023-06-26T11:49:00;10.23;;;6.47;;
47337;SDS011;33069;51.970;5.892;2023-06-26T11:51:29;8.55;;;7.68;;
47337;SDS011;33069;51.970;5.892;2023-06-26T11:53:55;6.60;;;5.93;;
47337;SDS011;33069;51.970;5.892;2023-06-26T11:56:20;7.50;;;6.25;;
47337;SDS011;33069;51.970;5.892;2023-06-26T12:01:23;7.05;;;6.35;;
47337;SDS011;33069;51.970;5.892;2023-06-26T12:03:50;6.43;;;5.82;;
47337;SDS011;33069;51.970;5.892;2023-06-26T12:06:16;6.57;;;5.97;;
47337;SDS011;33069;51.970;5.892;2023-06-26T12:08:42;8.30;;;6.22;;
47337;SDS011;33069;51.970;5.892;2023-06-26T12:11:08;9.65;;;7.60;;
47337;SDS011;33069;51.970;5.892;2023-06-26T12:13:35;7.85;;;6.72;;
47337;SDS011;33069;51.970;5.892;2023-06-26T12:16:00;8.68;;;6.78;;
47337;SDS011;33069;51.970;5.892;2023-06-26T12:18:32;15.50;;;13.95;;
47337;SDS011;33069;51.970;5.892;2023-06-26T12:20:59;7.23;;;5.70;;
47337;SDS011;33069;51.970;5.892;2023-06-26T12:23:31;9.20;;;6.80;;
47337;SDS011;33069;51.970;5.892;2023-06-26T12:25:58;8.05;;;7.43;;
47337;SDS011;33069;51.970;5.892;2023-06-26T12:28:24;6.70;;;6.15;;
47337;SDS011;33069;51.970;5.892;2023-06-26T12:33:44;9.70;;;6.85;;
47337;SDS011;33069;51.970;5.892;2023-06-26T12:36:13;7.68;;;6.70;;
47337;SDS011;33069;51.970;5.892;2023-06-26T12:38:42;7.82;;;7.20;;
47337;SDS011;33069;51.970;5.892;2023-06-26T12:41:14;6.80;;;6.20;;
47337;SDS011;33069;51.970;5.892;2023-06-26T12:43:40;11.35;;;6.10;;
47337;SDS011;33069;51.970;5.892;2023-06-26T12:46:06;5.60;;;5.10;;
47337;SDS011;33069;51.970;5.892;2023-06-26T12:48:36;6.25;;;5.65;;
47337;SDS011;33069;51.970;5.892;2023-06-26T12:51:13;8.60;;;5.32;;
47337;SDS011;33069;51.970;5.892;2023-06-26T12:53:40;6.85;;;6.25;;
47337;SDS011;33069;51.970;5.892;2023-06-26T12:56:07;6.13;;;5.50;;
47337;SDS011;33069;51.970;5.892;2023-06-26T12:58:33;6.30;;;5.70;;
47337;SDS011;33069;51.970;5.892;2023-06-26T13:01:01;7.95;;;4.88;;
47337;SDS011;33069;51.970;5.892;2023-06-26T13:03:30;6.57;;;6.07;;
47337;SDS011;33069;51.970;5.892;2023-06-26T13:05:56;8.45;;;7.13;;
47337;SDS011;33069;51.970;5.892;2023-06-26T13:08:22;10.90;;;6.32;;
47337;SDS011;33069;51.970;5.892;2023-06-26T13:10:48;9.80;;;6.65;;
47337;SDS011;33069;51.970;5.892;2023-06-26T13:13:13;8.00;;;5.93;;
47337;SDS011;33069;51.970;5.892;2023-06-26T13:15:39;6.50;;;6.00;;
47337;SDS011;33069;51.970;5.892;2023-06-26T13:18:05;6.15;;;5.72;;
47337;SDS011;33069;51.970;5.892;2023-06-26T13:20:30;7.85;;;7.25;;
47337;SDS011;33069;51.970;5.892;2023-06-26T13:22:56;7.10;;;6.50;;
47337;SDS011;33069;51.970;5.892;2023-06-26T13:25:22;10.68;;;6.38;;
47337;SDS011;33069;51.970;5.892;2023-06-26T13:27:48;6.53;;;5.93;;
47337;SDS011;33069;51.970;5.892;2023-06-26T13:30:14;6.45;;;5.90;;
47337;SDS011;33069;51.970;5.892;2023-06-26T13:32:41;8.20;;;7.38;;
47337;SDS011;33069;51.970;5.892;2023-06-26T13:35:08;7.57;;;6.30;;
47337;SDS011;33069;51.970;5.892;2023-06-26T13:37:34;9.90;;;6.57;;
47337;SDS011;33069;51.970;5.892;2023-06-26T13:40:02;8.73;;;6.40;;
47337;SDS011;33069;51.970;5.892;2023-06-26T13:42:28;7.53;;;6.90;;
47337;SDS011;33069;51.970;5.892;2023-06-26T13:44:54;8.13;;;7.47;;
47337;SDS011;33069;51.970;5.892;2023-06-26T13:47:20;6.40;;;5.90;;
47337;SDS011;33069;51.970;5.892;2023-06-26T13:49:46;6.45;;;5.90;;
47337;SDS011;33069;51.970;5.892;2023-06-26T13:52:12;6.70;;;6.00;;
47337;SDS011;33069;51.970;5.892;2023-06-26T13:54:37;6.82;;;6.22;;
47337;SDS011;33069;51.970;5.892;2023-06-26T13:57:05;7.18;;;5.70;;
47337;SDS011;33069;51.970;5.892;2023-06-26T13:59:31;6.75;;;6.25;;
47337;SDS011;33069;51.970;5.892;2023-06-26T14:01:58;6.90;;;6.30;;
47337;SDS011;33069;51.970;5.892;2023-06-26T14:04:24;8.02;;;6.68;;
47337;SDS011;33069;51.970;5.892;2023-06-26T14:06:50;9.38;;;6.90;;
47337;SDS011;33069;51.970;5.892;2023-06-26T14:09:16;9.30;;;8.70;;
47337;SDS011;33069;51.970;5.892;2023-06-26T14:11:43;6.68;;;6.18;;
47337;SDS011;33069;51.970;5.892;2023-06-26T14:14:09;7.03;;;5.85;;
47337;SDS011;33069;51.970;5.892;2023-06-26T14:16:34;7.03;;;6.43;;
47337;SDS011;33069;51.970;5.892;2023-06-26T14:19:01;7.70;;;7.10;;
47337;SDS011;33069;51.970;5.892;2023-06-26T14:21:27;8.45;;;7.53;;
47337;SDS011;33069;51.970;5.892;2023-06-26T14:23:54;7.45;;;6.70;;
47337;SDS011;33069;51.970;5.892;2023-06-26T14:26:20;8.20;;;7.40;;
47337;SDS011;33069;51.970;5.892;2023-06-26T14:28:46;7.10;;;6.50;;
47337;SDS011;33069;51.970;5.892;2023-06-26T14:31:12;7.15;;;6.70;;
47337;SDS011;33069;51.970;5.892;2023-06-26T14:33:39;9.45;;;6.32;;
47337;SDS011;33069;51.970;5.892;2023-06-26T14:36:05;6.82;;;6.22;;
47337;SDS011;33069;51.970;5.892;2023-06-26T14:38:30;7.82;;;7.15;;
47337;SDS011;33069;51.970;5.892;2023-06-26T14:40:56;7.13;;;6.45;;
47337;SDS011;33069;51.970;5.892;2023-06-26T14:43:22;8.10;;;7.30;;
47337;SDS011;33069;51.970;5.892;2023-06-26T14:45:47;7.20;;;6.60;;
47337;SDS011;33069;51.970;5.892;2023-06-26T14:48:13;12.27;;;11.15;;
47337;SDS011;33069;51.970;5.892;2023-06-26T14:50:39;7.45;;;6.75;;
47337;SDS011;33069;51.970;5.892;2023-06-26T14:53:05;9.10;;;6.80;;
47337;SDS011;33069;51.970;5.892;2023-06-26T14:55:31;7.18;;;6.47;;
47337;SDS011;33069;51.970;5.892;2023-06-26T14:57:56;7.10;;;6.50;;